Terminal Aerodrome Forecast
Issued by NWS

Home | Current Version | Previous Version | Text Only | Print | Product List | Glossary On
Versions: 1 2 3 4 5 6 7 8 9 10 11 12
858
FTUS42 KTBW 100538
TAFRSW
TAF
KRSW 100538Z 1006/1106 31010KT P6SM BKN050
     FM101000 36008KT P6SM BKN050
     FM101300 02010KT P6SM BKN050
     FM101800 32011KT P6SM BKN050
     FM110000 31007KT P6SM SCT050=

USA.gov is the U.S. government's official web portal to all federal, state and local government web resources and services.